Time;durP1;ratioP1;P1;durP2;ratioP2;P2;SDS_P1;SDS_P2;PMS_P1;PMS_P2;Temp;Humidity;BMP_temperature;BMP_pressure;BME280_temperature;BME280_humidity;BME280_pressure;Samples;Min_cycle;Max_cycle;Signal;HPM_P1;HPM_P2
2024/02/11 00:01:31;;;;;;;3.60;1.47;;;;;;;;;;5053990;28;20193;-79
2024/02/11 00:04:02;;;;;;;5.10;1.40;;;;;;;;;;5048380;28;20207;-81
2024/02/11 00:06:39;;;;;;;5.70;1.43;;;;;;;;;;5051262;28;20204;-79
2024/02/11 00:09:06;;;;;;;4.60;1.60;;;;;;;;;;5049898;28;20225;-81
2024/02/11 00:11:33;;;;;;;5.10;2.33;;;;;;;;;;5055713;28;20284;-80
2024/02/11 00:14:05;;;;;;;3.17;1.60;;;;;;;;;;5033095;28;20243;-81
2024/02/11 00:16:37;;;;;;;2.73;1.67;;;;;;;;;;5050827;28;20198;-79
2024/02/11 00:19:06;;;;;;;4.47;1.93;;;;;;;;;;5059435;28;20201;-81
2024/02/11 00:21:36;;;;;;;5.57;2.03;;;;;;;;;;5054687;28;20226;-81
2024/02/11 00:24:02;;;;;;;3.33;1.90;;;;;;;;;;5058686;28;20188;-80
2024/02/11 00:26:29;;;;;;;4.30;1.80;;;;;;;;;;5040978;28;20221;-80
2024/02/11 00:28:57;;;;;;;2.63;1.47;;;;;;;;;;5041306;28;20240;-79
2024/02/11 00:31:25;;;;;;;2.77;1.70;;;;;;;;;;5030478;28;20189;-82
2024/02/11 00:33:54;;;;;;;2.40;1.40;;;;;;;;;;5058149;28;20302;-79
2024/02/11 00:36:21;;;;;;;4.17;1.67;;;;;;;;;;5052724;28;20201;-79
2024/02/11 00:38:53;;;;;;;3.57;2.23;;;;;;;;;;5051014;28;20280;-78
2024/02/11 00:41:22;;;;;;;2.50;1.30;;;;;;;;;;5048101;28;20748;-82
2024/02/11 00:43:50;;;;;;;3.50;1.57;;;;;;;;;;5050304;28;20193;-80
2024/02/11 00:46:20;;;;;;;4.40;1.60;;;;;;;;;;5056511;28;20201;-81
2024/02/11 00:48:52;;;;;;;2.90;1.57;;;;;;;;;;5051223;28;20194;-80
2024/02/11 00:51:23;;;;;;;3.00;1.70;;;;;;;;;;5055913;28;20208;-81
2024/02/11 00:53:50;;;;;;;3.20;1.57;;;;;;;;;;5038331;28;20666;-81
2024/02/11 00:56:19;;;;;;;3.20;1.77;;;;;;;;;;5035487;28;20205;-81
2024/02/11 00:58:49;;;;;;;4.57;1.90;;;;;;;;;;5045095;28;20229;-80
2024/02/11 01:01:18;;;;;;;3.40;1.60;;;;;;;;;;5053364;28;20224;-80
2024/02/11 01:03:45;;;;;;;4.07;1.97;;;;;;;;;;5039345;28;20200;-81
2024/02/11 01:06:12;;;;;;;3.70;1.60;;;;;;;;;;5049269;28;20212;-82
2024/02/11 01:08:49;;;;;;;3.20;1.80;;;;;;;;;;5036647;28;20231;-80
2024/02/11 01:11:17;;;;;;;2.17;1.67;;;;;;;;;;5033238;28;20201;-79
2024/02/11 01:13:44;;;;;;;2.47;1.73;;;;;;;;;;5032069;28;20662;-81
2024/02/11 01:16:18;;;;;;;3.83;1.97;;;;;;;;;;5051511;28;20221;-81
2024/02/11 01:18:46;;;;;;;3.67;1.97;;;;;;;;;;5040807;28;20190;-81
2024/02/11 01:21:14;;;;;;;3.27;1.70;;;;;;;;;;5051690;28;20197;-80
2024/02/11 01:23:41;;;;;;;4.77;1.97;;;;;;;;;;5049480;28;20656;-80
2024/02/11 01:26:09;;;;;;;5.13;1.83;;;;;;;;;;5052212;28;20217;-80
2024/02/11 01:28:36;;;;;;;4.20;1.73;;;;;;;;;;5033050;28;20221;-79
2024/02/11 01:31:25;;;;;;;5.93;1.70;;;;;;;;;;5056496;28;20207;-82
2024/02/11 01:33:56;;;;;;;4.97;1.70;;;;;;;;;;5051732;28;20196;-80
2024/02/11 01:36:28;;;;;;;3.23;2.10;;;;;;;;;;5057191;28;20262;-82
2024/02/11 01:38:57;;;;;;;4.63;2.03;;;;;;;;;;5053666;28;20201;-80
2024/02/11 01:41:23;;;;;;;5.17;2.23;;;;;;;;;;5032930;28;20205;-82
2024/02/11 01:43:52;;;;;;;6.63;2.00;;;;;;;;;;5031985;28;20232;-81
2024/02/11 01:46:20;;;;;;;4.10;1.77;;;;;;;;;;5049219;28;20225;-80
2024/02/11 01:48:49;;;;;;;2.90;1.83;;;;;;;;;;5033152;28;20205;-79
2024/02/11 01:51:17;;;;;;;3.07;1.70;;;;;;;;;;5059060;28;20195;-80
2024/02/11 01:53:48;;;;;;;3.23;1.80;;;;;;;;;;5045945;28;20186;-79
2024/02/11 01:56:20;;;;;;;5.37;2.10;;;;;;;;;;5054815;28;20229;-80
2024/02/11 01:58:50;;;;;;;3.67;1.87;;;;;;;;;;5051958;28;20226;-82
2024/02/11 02:01:18;;;;;;;3.50;1.80;;;;;;;;;;5034620;28;20686;-79
2024/02/11 02:03:47;;;;;;;3.30;1.60;;;;;;;;;;5049891;28;20206;-80
2024/02/11 02:06:17;;;;;;;2.67;1.60;;;;;;;;;;5060863;28;20214;-80
2024/02/11 02:08:46;;;;;;;3.77;2.07;;;;;;;;;;5059375;28;20605;-79
2024/02/11 02:11:17;;;;;;;4.33;1.70;;;;;;;;;;5058771;28;20742;-80
2024/02/11 02:13:58;;;;;;;5.17;1.83;;;;;;;;;;5044554;28;20189;-80
2024/02/11 02:16:25;;;;;;;2.87;1.60;;;;;;;;;;5050525;28;20210;-81
2024/02/11 02:18:54;;;;;;;2.83;1.40;;;;;;;;;;5056329;28;20208;-80
2024/02/11 02:21:28;;;;;;;2.67;1.50;;;;;;;;;;5049055;28;20203;-81
2024/02/11 02:23:55;;;;;;;3.30;1.70;;;;;;;;;;5054991;28;20193;-82
2024/02/11 02:26:23;;;;;;;3.37;1.70;;;;;;;;;;5025991;28;20300;-80
2024/02/11 02:28:52;;;;;;;1.87;1.30;;;;;;;;;;5049282;28;20197;-80
2024/02/11 02:31:21;;;;;;;2.80;1.60;;;;;;;;;;5029943;28;20677;-81
2024/02/11 02:33:48;;;;;;;1.80;1.40;;;;;;;;;;5049374;28;20221;-80
2024/02/11 02:36:17;;;;;;;3.00;1.50;;;;;;;;;;5049618;28;20193;-80
2024/02/11 02:38:45;;;;;;;1.87;1.30;;;;;;;;;;5049273;28;20193;-80
2024/02/11 02:41:12;;;;;;;4.17;1.67;;;;;;;;;;5049258;28;20204;-80
2024/02/11 02:43:39;;;;;;;2.83;1.10;;;;;;;;;;5049222;28;20661;-81
2024/02/11 02:46:09;;;;;;;2.00;1.20;;;;;;;;;;5058852;28;20751;-81
2024/02/11 02:48:39;;;;;;;1.93;1.10;;;;;;;;;;5050267;28;20189;-79
2024/02/11 02:51:05;;;;;;;2.70;1.20;;;;;;;;;;5028598;28;20255;-81
2024/02/11 02:53:32;;;;;;;1.40;1.03;;;;;;;;;;5034668;28;20270;-81
2024/02/11 02:56:00;;;;;;;1.57;1.10;;;;;;;;;;5053466;28;20208;-81
2024/02/11 02:58:29;;;;;;;2.87;1.30;;;;;;;;;;5029775;28;21599;-80
2024/02/11 03:01:00;;;;;;;1.80;1.00;;;;;;;;;;5041099;28;20805;-81
2024/02/11 03:03:27;;;;;;;3.60;1.40;;;;;;;;;;5033724;28;20191;-80
2024/02/11 03:06:01;;;;;;;3.30;2.33;;;;;;;;;;5037145;28;20244;-80
2024/02/11 03:08:27;;;;;;;1.83;1.27;;;;;;;;;;5034386;28;20655;-80
2024/02/11 03:10:54;;;;;;;2.43;1.40;;;;;;;;;;5037101;28;20194;-81
2024/02/11 03:13:22;;;;;;;4.63;1.50;;;;;;;;;;5031338;28;20209;-78
2024/02/11 03:15:54;;;;;;;2.80;1.30;;;;;;;;;;5032609;28;20806;-82
2024/02/11 03:18:22;;;;;;;3.03;1.40;;;;;;;;;;5035127;28;20705;-81
2024/02/11 03:20:51;;;;;;;2.07;1.30;;;;;;;;;;5018850;28;20201;-82
2024/02/11 03:23:25;;;;;;;3.63;1.53;;;;;;;;;;5036028;28;20199;-82
2024/02/11 03:25:54;;;;;;;3.97;1.50;;;;;;;;;;5039392;28;20220;-81
2024/02/11 03:28:21;;;;;;;2.47;1.23;;;;;;;;;;5036474;28;20194;-80
2024/02/11 03:30:50;;;;;;;3.20;1.20;;;;;;;;;;5032703;28;20198;-82
2024/02/11 03:33:20;;;;;;;2.87;1.13;;;;;;;;;;5001307;28;20202;-80
2024/02/11 03:35:50;;;;;;;2.60;1.03;;;;;;;;;;5032354;28;20218;-82
2024/02/11 03:38:18;;;;;;;1.53;1.10;;;;;;;;;;5032281;28;20208;-81
2024/02/11 03:40:47;;;;;;;2.07;1.17;;;;;;;;;;5015735;28;20202;-81
2024/02/11 03:43:13;;;;;;;2.30;1.40;;;;;;;;;;5032140;28;20206;-79
2024/02/11 03:45:44;;;;;;;2.13;1.20;;;;;;;;;;5038153;28;20225;-81
2024/02/11 03:48:14;;;;;;;2.90;0.90;;;;;;;;;;5036505;28;20206;-81
2024/02/11 03:50:46;;;;;;;2.50;1.10;;;;;;;;;;5032913;28;20737;-80
2024/02/11 03:53:16;;;;;;;2.43;1.30;;;;;;;;;;5031632;28;20273;-81
2024/02/11 03:55:48;;;;;;;1.90;1.00;;;;;;;;;;5034775;28;20194;-81
2024/02/11 03:58:17;;;;;;;1.97;1.10;;;;;;;;;;5039639;28;20186;-82
2024/02/11 04:00:47;;;;;;;2.00;1.10;;;;;;;;;;5019949;28;20197;-80
2024/02/11 04:03:18;;;;;;;1.90;1.13;;;;;;;;;;5034570;28;20266;-80
2024/02/11 04:05:48;;;;;;;2.27;1.20;;;;;;;;;;5016380;28;20233;-81
2024/02/11 04:08:23;;;;;;;1.90;1.37;;;;;;;;;;5016683;28;20215;-81
2024/02/11 04:10:54;;;;;;;2.47;1.60;;;;;;;;;;5033466;28;20790;-82
2024/02/11 04:13:24;;;;;;;4.37;2.03;;;;;;;;;;5035421;28;20240;-81
2024/02/11 04:15:56;;;;;;;2.30;1.90;;;;;;;;;;5023646;28;20217;-80
2024/02/11 04:18:24;;;;;;;5.37;2.20;;;;;;;;;;5035874;28;20276;-80
2024/02/11 04:20:56;;;;;;;3.97;2.07;;;;;;;;;;5032504;28;20240;-81
2024/02/11 04:23:24;;;;;;;4.07;2.30;;;;;;;;;;5036492;28;20204;-80
2024/02/11 04:25:52;;;;;;;3.73;2.50;;;;;;;;;;5014890;28;20233;-81
2024/02/11 04:28:20;;;;;;;4.53;2.30;;;;;;;;;;5032526;28;20281;-81
2024/02/11 04:30:51;;;;;;;2.70;2.07;;;;;;;;;;5029506;28;20252;-82
2024/02/11 04:33:22;;;;;;;4.33;2.30;;;;;;;;;;5014687;28;20262;-81
2024/02/11 04:35:56;;;;;;;3.93;1.97;;;;;;;;;;5029251;28;20210;-79
2024/02/11 04:38:23;;;;;;;3.67;2.00;;;;;;;;;;5030594;28;20194;-81
2024/02/11 04:40:55;;;;;;;3.00;1.80;;;;;;;;;;5037657;28;20228;-80
2024/02/11 04:43:22;;;;;;;3.27;2.00;;;;;;;;;;5017926;28;20206;-82
2024/02/11 04:46:02;;;;;;;3.77;2.10;;;;;;;;;;5040925;28;20265;-81
2024/02/11 04:48:31;;;;;;;3.10;2.20;;;;;;;;;;5015958;28;20301;-83
2024/02/11 04:50:59;;;;;;;2.53;1.80;;;;;;;;;;5040179;28;20391;-81
2024/02/11 04:53:33;;;;;;;2.13;1.93;;;;;;;;;;5017243;28;20278;-82
2024/02/11 04:56:05;;;;;;;3.20;2.03;;;;;;;;;;5033947;28;20205;-81
2024/02/11 04:58:36;;;;;;;3.50;2.30;;;;;;;;;;5015657;28;20317;-81
2024/02/11 05:01:04;;;;;;;4.20;2.73;;;;;;;;;;5057563;28;20198;-80
2024/02/11 05:03:40;;;;;;;4.00;2.60;;;;;;;;;;5041274;28;20206;-81
2024/02/11 05:06:07;;;;;;;5.63;2.70;;;;;;;;;;5058463;28;20238;-83
2024/02/11 05:08:37;;;;;;;4.57;2.83;;;;;;;;;;5053111;28;20733;-80
2024/02/11 05:11:05;;;;;;;5.50;3.10;;;;;;;;;;5056850;28;20189;-82
2024/02/11 05:13:34;;;;;;;6.00;3.30;;;;;;;;;;5050909;28;20198;-80
2024/02/11 05:16:05;;;;;;;6.53;3.30;;;;;;;;;;5054291;28;20669;-79
2024/02/11 05:18:36;;;;;;;5.40;3.43;;;;;;;;;;5054156;28;20204;-78
2024/02/11 05:21:04;;;;;;;3.80;3.33;;;;;;;;;;5056373;28;20247;-80
2024/02/11 05:23:30;;;;;;;4.03;3.60;;;;;;;;;;5052694;28;20232;-80
2024/02/11 05:26:05;;;;;;;4.50;3.37;;;;;;;;;;5057566;28;20209;-79
2024/02/11 05:28:34;;;;;;;3.60;3.27;;;;;;;;;;5052989;28;20215;-79
2024/02/11 05:31:02;;;;;;;4.07;3.07;;;;;;;;;;5055010;28;20217;-80
2024/02/11 05:33:35;;;;;;;3.77;3.10;;;;;;;;;;5056694;28;20232;-81
2024/02/11 05:36:07;;;;;;;4.20;3.10;;;;;;;;;;5041030;28;20556;-77
2024/02/11 05:38:41;;;;;;;4.83;3.10;;;;;;;;;;5054857;28;20820;-79
2024/02/11 05:41:10;;;;;;;4.73;3.03;;;;;;;;;;5060670;28;20197;-78
2024/02/11 05:43:38;;;;;;;4.63;3.10;;;;;;;;;;5063369;28;20196;-79
2024/02/11 05:46:07;;;;;;;3.43;2.80;;;;;;;;;;5059427;28;20209;-79
2024/02/11 05:48:35;;;;;;;3.23;2.70;;;;;;;;;;5046474;28;20214;-81
2024/02/11 05:51:05;;;;;;;3.77;3.00;;;;;;;;;;5060136;28;20194;-81
2024/02/11 05:53:36;;;;;;;3.50;3.20;;;;;;;;;;5064856;28;20195;-81
2024/02/11 05:56:04;;;;;;;4.13;3.30;;;;;;;;;;5055208;28;20193;-79
2024/02/11 05:58:32;;;;;;;4.27;3.47;;;;;;;;;;5056216;28;20233;-78
2024/02/11 06:00:59;;;;;;;3.67;3.00;;;;;;;;;;5054038;28;20194;-82
2024/02/11 06:03:26;;;;;;;4.30;3.43;;;;;;;;;;5051989;28;20690;-80
2024/02/11 06:06:00;;;;;;;4.17;3.77;;;;;;;;;;5055388;28;20212;-81
2024/02/11 06:08:35;;;;;;;5.00;3.47;;;;;;;;;;5053366;28;20745;-82
2024/02/11 06:11:06;;;;;;;3.90;3.60;;;;;;;;;;5050886;28;20202;-80
2024/02/11 06:13:35;;;;;;;3.87;3.57;;;;;;;;;;5051323;28;20205;-82
2024/02/11 06:16:06;;;;;;;3.93;3.23;;;;;;;;;;5060942;28;20278;-80
2024/02/11 06:18:33;;;;;;;4.00;3.60;;;;;;;;;;5069040;28;20194;-79
2024/02/11 06:21:01;;;;;;;4.53;3.90;;;;;;;;;;5060745;28;20201;-79
2024/02/11 06:23:27;;;;;;;4.83;3.80;;;;;;;;;;5054774;28;20190;-80
2024/02/11 06:26:02;;;;;;;4.50;4.10;;;;;;;;;;5050772;28;20645;-81
2024/02/11 06:28:29;;;;;;;4.50;3.90;;;;;;;;;;5051931;28;20218;-81
2024/02/11 06:31:02;;;;;;;5.00;3.60;;;;;;;;;;5054278;28;20190;-81
2024/02/11 06:33:28;;;;;;;4.10;3.70;;;;;;;;;;5055040;28;20189;-79
2024/02/11 06:35:58;;;;;;;4.23;3.70;;;;;;;;;;5055094;28;20201;-80
2024/02/11 06:38:27;;;;;;;4.47;4.07;;;;;;;;;;5055640;28;20189;-79
2024/02/11 06:40:57;;;;;;;4.30;3.90;;;;;;;;;;5055334;28;20205;-79
2024/02/11 06:43:30;;;;;;;3.53;3.23;;;;;;;;;;5053052;28;20204;-81
2024/02/11 06:46:03;;;;;;;3.97;3.20;;;;;;;;;;5062210;28;20293;-77
2024/02/11 06:48:40;;;;;;;3.23;3.00;;;;;;;;;;5043884;28;20188;-79
2024/02/11 06:51:10;;;;;;;3.43;2.90;;;;;;;;;;5054678;28;20274;-78
2024/02/11 06:53:36;;;;;;;3.30;3.00;;;;;;;;;;5053425;28;20576;-79
2024/02/11 06:56:03;;;;;;;2.93;2.70;;;;;;;;;;5055056;28;20189;-78
2024/02/11 06:58:29;;;;;;;3.03;2.73;;;;;;;;;;5044349;28;20262;-79
2024/02/11 07:00:59;;;;;;;2.80;2.50;;;;;;;;;;5055104;28;20617;-80
2024/02/11 07:03:28;;;;;;;5.20;2.60;;;;;;;;;;5055177;28;20202;-78
2024/02/11 07:05:55;;;;;;;2.63;2.40;;;;;;;;;;5052238;28;20255;-79
2024/02/11 07:08:24;;;;;;;2.60;2.40;;;;;;;;;;5053402;28;20214;-77
2024/02/11 07:10:51;;;;;;;2.83;2.53;;;;;;;;;;5056312;28;20585;-78
2024/02/11 07:13:17;;;;;;;2.87;2.50;;;;;;;;;;5051970;28;20189;-77
2024/02/11 07:15:46;;;;;;;3.33;2.70;;;;;;;;;;5057483;28;20215;-78
2024/02/11 07:18:13;;;;;;;2.90;2.60;;;;;;;;;;5056569;28;20673;-79
2024/02/11 07:20:42;;;;;;;3.13;2.43;;;;;;;;;;5057370;28;20197;-80
2024/02/11 07:23:09;;;;;;;2.83;2.57;;;;;;;;;;5049379;28;20217;-80
2024/02/11 07:25:37;;;;;;;2.60;2.33;;;;;;;;;;5044730;28;20194;-79
2024/02/11 07:28:06;;;;;;;2.20;2.00;;;;;;;;;;5053410;28;20281;-78
2024/02/11 07:30:34;;;;;;;2.67;2.20;;;;;;;;;;5055955;28;20205;-80
2024/02/11 07:33:05;;;;;;;2.60;2.20;;;;;;;;;;5052262;28;20203;-81
2024/02/11 07:35:34;;;;;;;1.90;1.80;;;;;;;;;;5060456;28;20204;-82
2024/02/11 07:38:05;;;;;;;2.50;1.83;;;;;;;;;;5058384;28;20185;-82
2024/02/11 07:40:33;;;;;;;2.47;2.27;;;;;;;;;;5053028;28;20207;-79
2024/02/11 07:43:01;;;;;;;2.00;1.80;;;;;;;;;;5055105;28;20197;-80
2024/02/11 07:45:28;;;;;;;1.90;1.80;;;;;;;;;;5054673;28;20219;-80
2024/02/11 07:47:55;;;;;;;2.30;2.10;;;;;;;;;;5053275;28;20218;-78
2024/02/11 07:50:22;;;;;;;2.20;2.00;;;;;;;;;;5053536;28;20200;-81
2024/02/11 07:52:51;;;;;;;2.73;2.50;;;;;;;;;;5052837;28;20228;-79
2024/02/11 07:55:31;;;;;;;2.17;1.97;;;;;;;;;;5059233;28;20332;-80
2024/02/11 07:58:04;;;;;;;2.07;1.87;;;;;;;;;;5059911;28;20189;-81
2024/02/11 08:00:31;;;;;;;2.10;1.90;;;;;;;;;;5052654;28;20228;-79
2024/02/11 08:02:58;;;;;;;2.00;1.90;;;;;;;;;;5035350;28;20224;-80
2024/02/11 08:05:44;;;;;;;2.10;1.90;;;;;;;;;;5055289;28;20209;-81
2024/02/11 08:08:12;;;;;;;2.20;2.00;;;;;;;;;;5047154;28;20780;-80
2024/02/11 08:10:40;;;;;;;2.00;1.80;;;;;;;;;;5056756;28;20200;-81
2024/02/11 08:13:13;;;;;;;1.80;1.70;;;;;;;;;;5056267;28;20224;-84
2024/02/11 08:15:43;;;;;;;1.77;1.57;;;;;;;;;;5042767;28;20669;-82
2024/02/11 08:18:10;;;;;;;2.27;1.90;;;;;;;;;;5055317;28;20195;-79
2024/02/11 08:20:45;;;;;;;2.20;1.70;;;;;;;;;;5055293;28;20262;-80
2024/02/11 08:23:12;;;;;;;1.50;1.40;;;;;;;;;;5055820;28;20260;-81
2024/02/11 08:25:38;;;;;;;2.97;2.67;;;;;;;;;;5050909;28;20257;-81
2024/02/11 08:28:05;;;;;;;4.00;3.03;;;;;;;;;;5053769;28;20226;-82
2024/02/11 08:30:33;;;;;;;2.90;2.47;;;;;;;;;;5036821;28;20594;-81
2024/02/11 08:33:00;;;;;;;2.03;1.93;;;;;;;;;;5053538;28;20248;-82
2024/02/11 08:35:32;;;;;;;2.27;1.90;;;;;;;;;;5054041;28;20281;-79
2024/02/11 08:38:01;;;;;;;2.00;1.70;;;;;;;;;;5057994;28;20218;-79
2024/02/11 08:40:28;;;;;;;1.77;1.67;;;;;;;;;;5050900;28;20210;-82
2024/02/11 08:42:57;;;;;;;2.23;2.00;;;;;;;;;;5059457;28;20198;-80
2024/02/11 08:45:24;;;;;;;3.83;2.80;;;;;;;;;;5055741;28;20221;-80
2024/02/11 08:47:51;;;;;;;3.43;2.97;;;;;;;;;;5058896;28;20222;-81
2024/02/11 08:50:18;;;;;;;2.43;2.20;;;;;;;;;;5055745;28;20203;-82
2024/02/11 08:52:49;;;;;;;2.40;2.20;;;;;;;;;;5053845;28;20210;-80
2024/02/11 08:55:19;;;;;;;2.73;2.10;;;;;;;;;;5050211;28;20234;-79
2024/02/11 08:57:59;;;;;;;3.20;2.50;;;;;;;;;;5051596;28;20251;-80
2024/02/11 09:00:29;;;;;;;3.07;2.37;;;;;;;;;;5030916;28;20238;-79
2024/02/11 09:02:57;;;;;;;3.70;3.40;;;;;;;;;;5055398;28;20211;-80
2024/02/11 09:05:25;;;;;;;2.40;2.20;;;;;;;;;;5057696;28;20219;-78
2024/02/11 09:07:54;;;;;;;2.00;1.80;;;;;;;;;;5062160;28;20226;-81
2024/02/11 09:10:29;;;;;;;1.50;1.40;;;;;;;;;;5057043;28;20199;-78
2024/02/11 09:12:56;;;;;;;1.70;1.50;;;;;;;;;;5049433;28;20200;-79
2024/02/11 09:15:24;;;;;;;3.90;1.60;;;;;;;;;;5057035;28;20665;-80
2024/02/11 09:17:54;;;;;;;2.37;1.90;;;;;;;;;;5050028;28;20206;-80
2024/02/11 09:20:23;;;;;;;2.43;1.60;;;;;;;;;;5054314;28;20309;-80
2024/02/11 09:22:53;;;;;;;2.20;2.00;;;;;;;;;;5056530;28;20199;-81
2024/02/11 09:25:21;;;;;;;2.00;1.70;;;;;;;;;;5055098;28;20262;-82
2024/02/11 09:27:48;;;;;;;1.33;1.23;;;;;;;;;;5065283;28;20230;-81
2024/02/11 09:30:18;;;;;;;1.47;1.10;;;;;;;;;;5046845;28;20638;-80
2024/02/11 09:32:46;;;;;;;1.90;1.20;;;;;;;;;;5052698;28;20197;-81
2024/02/11 09:35:20;;;;;;;1.60;1.50;;;;;;;;;;5049421;28;20197;-81
2024/02/11 09:37:51;;;;;;;1.40;1.27;;;;;;;;;;5051651;28;20203;-79
2024/02/11 09:40:18;;;;;;;2.70;2.00;;;;;;;;;;5055109;28;20636;-82
2024/02/11 09:42:49;;;;;;;5.00;3.37;;;;;;;;;;5048639;28;20196;-79
2024/02/11 09:45:24;;;;;;;4.80;4.40;;;;;;;;;;5056665;28;20227;-80
2024/02/11 09:47:58;;;;;;;2.10;1.70;;;;;;;;;;5047220;28;20271;-79
2024/02/11 09:50:25;;;;;;;1.30;1.20;;;;;;;;;;5058090;28;20193;-81
2024/02/11 09:52:54;;;;;;;1.07;0.90;;;;;;;;;;5051525;28;20299;-79
2024/02/11 09:55:23;;;;;;;1.93;1.10;;;;;;;;;;5051890;28;20203;-79
2024/02/11 09:58:03;;;;;;;2.10;1.10;;;;;;;;;;5054656;28;20201;-81
2024/02/11 10:00:31;;;;;;;1.33;1.10;;;;;;;;;;5062009;28;20240;-80
2024/02/11 10:03:00;;;;;;;1.13;1.07;;;;;;;;;;5058348;28;20468;-79
2024/02/11 10:05:31;;;;;;;1.20;1.10;;;;;;;;;;5056292;28;20224;-80
2024/02/11 10:08:04;;;;;;;1.53;1.40;;;;;;;;;;5047949;28;20235;-80
2024/02/11 10:10:34;;;;;;;1.40;1.30;;;;;;;;;;5060252;28;20222;-81
2024/02/11 10:13:04;;;;;;;1.27;1.17;;;;;;;;;;5058451;28;20196;-82
2024/02/11 10:15:38;;;;;;;2.57;1.50;;;;;;;;;;5051226;28;20199;-81
2024/02/11 10:18:08;;;;;;;1.70;1.60;;;;;;;;;;5053818;28;20199;-80
2024/02/11 10:20:36;;;;;;;1.57;1.47;;;;;;;;;;5062923;28;20198;-80
2024/02/11 10:23:05;;;;;;;2.70;2.50;;;;;;;;;;5059967;28;20252;-80
2024/02/11 10:25:33;;;;;;;3.20;2.83;;;;;;;;;;5064234;28;20208;-80
2024/02/11 10:28:00;;;;;;;2.73;2.53;;;;;;;;;;5052663;28;20220;-81
2024/02/11 10:30:27;;;;;;;3.07;2.87;;;;;;;;;;5059085;28;20189;-79
2024/02/11 10:33:00;;;;;;;2.60;2.40;;;;;;;;;;5059333;28;20204;-79
2024/02/11 10:35:33;;;;;;;2.57;2.00;;;;;;;;;;5050496;28;20201;-83
2024/02/11 10:38:04;;;;;;;2.30;2.10;;;;;;;;;;5053260;28;20300;-80
2024/02/11 10:40:31;;;;;;;1.83;1.73;;;;;;;;;;5057899;28;20277;-80
2024/02/11 10:43:02;;;;;;;2.13;1.97;;;;;;;;;;5046363;28;20190;-77
2024/02/11 10:45:31;;;;;;;1.80;1.50;;;;;;;;;;5056868;28;20227;-79
2024/02/11 10:48:03;;;;;;;1.93;1.83;;;;;;;;;;5052508;28;20214;-80
2024/02/11 10:50:35;;;;;;;2.40;2.10;;;;;;;;;;5056938;28;20200;-80
2024/02/11 10:53:05;;;;;;;2.83;1.60;;;;;;;;;;5058120;28;20193;-79
2024/02/11 10:55:36;;;;;;;1.47;1.37;;;;;;;;;;5061060;28;20192;-80
2024/02/11 10:58:08;;;;;;;1.53;1.43;;;;;;;;;;5059942;28;20199;-79
2024/02/11 11:00:35;;;;;;;1.50;1.40;;;;;;;;;;5063657;28;20199;-79
2024/02/11 11:03:26;;;;;;;2.63;2.43;;;;;;;;;;5057986;28;20283;-78
2024/02/11 11:05:55;;;;;;;2.20;2.00;;;;;;;;;;5058768;28;20220;-79
2024/02/11 11:08:23;;;;;;;1.90;1.80;;;;;;;;;;5056140;28;20391;-81
2024/02/11 11:10:49;;;;;;;1.93;1.63;;;;;;;;;;5054582;28;20245;-82
2024/02/11 11:13:23;;;;;;;3.17;2.43;;;;;;;;;;5054392;28;20271;-80
2024/02/11 11:15:52;;;;;;;2.63;2.13;;;;;;;;;;5053669;28;20197;-79
2024/02/11 11:18:23;;;;;;;2.30;2.10;;;;;;;;;;5054401;28;20201;-80
2024/02/11 11:20:54;;;;;;;2.50;1.80;;;;;;;;;;5051762;28;20262;-80
2024/02/11 11:23:26;;;;;;;2.10;1.90;;;;;;;;;;5054824;28;20205;-78
2024/02/11 11:25:58;;;;;;;3.30;2.20;;;;;;;;;;5055867;28;20282;-78
2024/02/11 11:28:31;;;;;;;2.37;2.10;;;;;;;;;;5060838;28;20224;-79
2024/02/11 11:30:58;;;;;;;2.40;2.20;;;;;;;;;;5054080;28;20197;-79
2024/02/11 11:33:34;;;;;;;1.80;1.70;;;;;;;;;;5058154;28;20431;-78
2024/02/11 11:36:04;;;;;;;1.60;1.50;;;;;;;;;;5063083;28;20199;-79
2024/02/11 11:38:31;;;;;;;1.93;1.77;;;;;;;;;;5063187;28;20193;-78
2024/02/11 11:40:59;;;;;;;1.80;1.70;;;;;;;;;;5051121;28;20231;-79
2024/02/11 11:43:32;;;;;;;2.30;2.10;;;;;;;;;;5065477;28;20199;-79
2024/02/11 11:46:04;;;;;;;2.20;2.00;;;;;;;;;;5053356;28;20847;-79
2024/02/11 11:48:36;;;;;;;2.17;1.77;;;;;;;;;;5055280;28;20217;-79
2024/02/11 11:51:07;;;;;;;1.60;1.50;;;;;;;;;;5052773;28;20297;-78
2024/02/11 11:53:35;;;;;;;2.27;1.80;;;;;;;;;;5051665;28;20211;-79
2024/02/11 11:56:02;;;;;;;1.90;1.80;;;;;;;;;;5051074;28;20198;-80
2024/02/11 11:58:32;;;;;;;1.87;1.77;;;;;;;;;;5051028;28;20242;-79
2024/02/11 12:01:03;;;;;;;2.40;2.20;;;;;;;;;;5058191;28;20213;-78
2024/02/11 12:03:30;;;;;;;1.60;1.50;;;;;;;;;;5055184;28;20205;-79
2024/02/11 12:05:58;;;;;;;2.23;1.67;;;;;;;;;;5053970;28;20224;-78
2024/02/11 12:08:25;;;;;;;1.67;1.57;;;;;;;;;;5052338;28;20444;-78
2024/02/11 12:10:58;;;;;;;1.97;1.80;;;;;;;;;;5055607;28;20194;-78
2024/02/11 12:13:26;;;;;;;2.27;1.67;;;;;;;;;;5052131;28;20231;-79
2024/02/11 12:15:54;;;;;;;1.80;1.70;;;;;;;;;;5068183;28;20252;-79
2024/02/11 12:18:21;;;;;;;1.77;1.67;;;;;;;;;;5056563;28;20225;-79
2024/02/11 12:20:53;;;;;;;2.10;1.90;;;;;;;;;;5057336;28;20270;-81
2024/02/11 12:23:21;;;;;;;2.37;2.20;;;;;;;;;;5051880;28;20432;-79
2024/02/11 12:25:54;;;;;;;1.90;1.80;;;;;;;;;;5053756;28;20282;-79
2024/02/11 12:28:32;;;;;;;2.10;1.90;;;;;;;;;;5052862;28;20220;-79
2024/02/11 12:31:08;;;;;;;2.07;1.97;;;;;;;;;;5050118;28;20207;-80
2024/02/11 12:33:41;;;;;;;1.57;1.30;;;;;;;;;;5055725;28;20257;-79
2024/02/11 12:36:10;;;;;;;2.00;0.70;;;;;;;;;;5058809;28;20264;-80
2024/02/11 12:38:42;;;;;;;0.60;0.50;;;;;;;;;;5034599;28;20552;-79
2024/02/11 12:41:11;;;;;;;0.30;0.30;;;;;;;;;;5050111;28;20198;-80
2024/02/11 12:43:59;;;;;;;1.23;0.40;;;;;;;;;;5035431;28;20202;-78
2024/02/11 12:46:26;;;;;;;0.33;0.33;;;;;;;;;;5062547;28;20223;-78
2024/02/11 12:48:58;;;;;;;0.63;0.50;;;;;;;;;;5064838;28;20216;-79
2024/02/11 13:02:04;;;;;;;0.10;0.10;;;;;;;;;;6207037;22;1443430;-79
2024/02/11 13:04:35;;;;;;;0.20;0.20;;;;;;;;;;6254443;22;20160;-78
2024/02/11 13:07:05;;;;;;;0.20;0.20;;;;;;;;;;6254626;23;20149;-79
2024/02/11 13:09:34;;;;;;;0.10;0.10;;;;;;;;;;6254201;22;20179;-79
2024/02/11 13:12:01;;;;;;;0.10;0.10;;;;;;;;;;6253912;22;20165;-79
2024/02/11 13:14:28;;;;;;;0.20;0.20;;;;;;;;;;6254017;22;20164;-80
2024/02/11 13:16:59;;;;;;;1.07;0.20;;;;;;;;;;6253534;22;20256;-79
2024/02/11 13:19:28;;;;;;;1.40;0.20;;;;;;;;;;6252597;23;20235;-80
2024/02/11 13:21:57;;;;;;;0.33;0.27;;;;;;;;;;6254345;22;20226;-79
2024/02/11 13:24:27;;;;;;;0.20;0.17;;;;;;;;;;6253865;22;20184;-81
2024/02/11 13:26:54;;;;;;;0.40;0.20;;;;;;;;;;6252346;23;20165;-78
2024/02/11 13:29:25;;;;;;;0.30;0.20;;;;;;;;;;6253916;22;20160;-79
2024/02/11 13:31:52;;;;;;;0.20;0.20;;;;;;;;;;6251773;23;20237;-79
2024/02/11 13:34:24;;;;;;;0.47;0.10;;;;;;;;;;6252334;23;20174;-80
2024/02/11 13:36:52;;;;;;;0.13;0.13;;;;;;;;;;6253993;22;20165;-79
2024/02/11 13:39:23;;;;;;;0.77;0.20;;;;;;;;;;6253768;23;20611;-79
2024/02/11 13:41:49;;;;;;;0.10;0.10;;;;;;;;;;6253797;22;20177;-79
2024/02/11 13:44:16;;;;;;;0.20;0.20;;;;;;;;;;6254177;22;20184;-80
2024/02/11 13:46:46;;;;;;;0.10;0.10;;;;;;;;;;6254263;22;20168;-79
2024/02/11 13:49:15;;;;;;;0.10;0.10;;;;;;;;;;6254227;22;20206;-80
2024/02/11 13:51:49;;;;;;;0.50;0.20;;;;;;;;;;6254033;22;20150;-80
2024/02/11 13:54:15;;;;;;;0.23;0.20;;;;;;;;;;6254144;22;20165;-79
2024/02/11 13:57:00;;;;;;;3.37;1.70;;;;;;;;;;6254299;22;20184;-79
2024/02/11 13:59:29;;;;;;;1.83;0.83;;;;;;;;;;6253961;22;20618;-79
2024/02/11 14:01:59;;;;;;;1.17;0.60;;;;;;;;;;6249983;22;20220;-79
2024/02/11 14:04:26;;;;;;;1.30;0.30;;;;;;;;;;6246675;22;20257;-82
2024/02/11 14:06:53;;;;;;;0.20;0.20;;;;;;;;;;6246189;23;20165;-79
2024/02/11 14:09:22;;;;;;;0.10;0.10;;;;;;;;;;6247926;23;20218;-78
2024/02/11 14:11:52;;;;;;;0.40;0.20;;;;;;;;;;6246178;23;20243;-79
2024/02/11 14:14:23;;;;;;;0.20;0.20;;;;;;;;;;6246115;23;20159;-79
2024/02/11 14:16:52;;;;;;;0.10;0.10;;;;;;;;;;6247950;22;20165;-79
2024/02/11 14:19:23;;;;;;;0.17;0.17;;;;;;;;;;6247830;22;20161;-79
2024/02/11 14:21:53;;;;;;;0.20;0.20;;;;;;;;;;6247752;22;20188;-79
2024/02/11 14:24:23;;;;;;;0.20;0.20;;;;;;;;;;6246189;23;20150;-80
2024/02/11 14:26:51;;;;;;;0.20;0.20;;;;;;;;;;6247340;22;20161;-79
2024/02/11 14:29:20;;;;;;;0.20;0.20;;;;;;;;;;6246212;23;20173;-79
2024/02/11 14:31:49;;;;;;;0.43;0.20;;;;;;;;;;6246613;23;20275;-79
2024/02/11 14:34:19;;;;;;;0.70;0.50;;;;;;;;;;6247719;22;20161;-79
2024/02/11 14:36:51;;;;;;;0.20;0.20;;;;;;;;;;6246067;23;20153;-79
2024/02/11 14:39:24;;;;;;;0.37;0.30;;;;;;;;;;6246363;23;20218;-79
2024/02/11 14:41:59;;;;;;;0.30;0.20;;;;;;;;;;6247882;22;20224;-79
2024/02/11 14:44:27;;;;;;;0.87;0.13;;;;;;;;;;6247259;22;20168;-79
2024/02/11 14:46:56;;;;;;;0.20;0.20;;;;;;;;;;6245876;23;20141;-80
2024/02/11 14:49:24;;;;;;;1.03;0.20;;;;;;;;;;6246973;23;20229;-79
2024/02/11 14:51:52;;;;;;;0.20;0.20;;;;;;;;;;6247172;22;20204;-80
2024/02/11 14:54:20;;;;;;;0.10;0.10;;;;;;;;;;6247771;23;20165;-81
2024/02/11 14:56:49;;;;;;;0.10;0.10;;;;;;;;;;6246626;23;20183;-81
2024/02/11 14:59:20;;;;;;;0.10;0.10;;;;;;;;;;6248168;23;20165;-80
2024/02/11 15:01:51;;;;;;;0.10;0.10;;;;;;;;;;6248242;22;20196;-81
2024/02/11 15:04:21;;;;;;;0.20;0.20;;;;;;;;;;6247885;22;20172;-82
2024/02/11 15:06:49;;;;;;;0.13;0.13;;;;;;;;;;6222141;23;20638;-80
2024/02/11 15:09:19;;;;;;;0.10;0.10;;;;;;;;;;6246221;23;20493;-80